createdAt,value
2017-04-09T08:38:03.573Z,16.65
2017-04-09T08:39:05.009Z,15.52
2017-04-09T08:40:06.443Z,14.88
2017-04-09T08:41:07.879Z,14.34
2017-04-09T08:42:09.307Z,14.04
2017-04-09T08:43:10.737Z,13.89
2017-04-09T08:44:12.169Z,14.07
2017-04-09T08:45:13.607Z,14.17
2017-04-09T08:46:15.045Z,14.29
2017-04-09T08:47:16.469Z,14.37
2017-04-09T08:48:17.905Z,14.46
2017-04-09T08:49:19.334Z,14.44
2017-04-09T08:50:20.790Z,14.53
2017-04-09T08:51:22.226Z,14.56
2017-04-09T08:52:23.658Z,14.47
2017-04-09T08:53:25.096Z,14.61
2017-04-09T08:54:26.536Z,14.47
2017-04-09T08:55:27.987Z,14.35
2017-04-09T08:56:29.429Z,14.46
2017-04-09T08:57:30.865Z,14.54
2017-04-09T08:58:32.339Z,14.49
2017-04-09T08:59:33.799Z,14.67
2017-04-09T09:00:35.221Z,14.50
2017-04-09T09:01:36.659Z,14.46
2017-04-09T09:02:38.089Z,14.32
2017-04-09T09:03:39.529Z,14.52
2017-04-09T09:04:40.962Z,14.57
2017-04-09T09:05:42.407Z,14.84
2017-04-09T09:06:43.837Z,14.72
2017-04-09T09:07:45.274Z,14.93
2017-04-09T09:08:46.709Z,15.02
2017-04-09T09:09:48.141Z,14.99
2017-04-09T09:10:49.577Z,15.19
2017-04-09T09:11:51.011Z,15.28
2017-04-09T09:12:52.445Z,15.38
2017-04-09T09:13:53.883Z,15.26
2017-04-09T09:14:55.317Z,15.05
2017-04-09T09:15:56.749Z,15.17
2017-04-09T09:16:58.178Z,15.24
2017-04-09T09:17:59.622Z,15.54
2017-04-09T09:19:01.055Z,15.49
2017-04-09T09:20:02.487Z,15.64
2017-04-09T09:21:03.914Z,15.66
2017-04-09T09:22:05.353Z,15.68
2017-04-09T09:23:06.788Z,15.67
2017-04-09T09:24:08.219Z,15.51
2017-04-09T09:25:09.656Z,15.74
2017-04-09T09:26:11.087Z,15.79
2017-04-09T09:27:12.520Z,15.96
2017-04-09T09:28:13.962Z,16.01
2017-04-09T09:29:15.387Z,16.20
2017-04-09T09:30:16.816Z,15.96
2017-04-09T09:31:18.257Z,16.07
2017-04-09T09:32:19.694Z,16.00
2017-04-09T09:33:21.132Z,16.25
2017-04-09T09:34:22.563Z,16.52
2017-04-09T09:35:23.996Z,16.56
2017-04-09T09:36:25.436Z,16.20
2017-04-09T09:37:26.866Z,16.09
2017-04-09T09:38:28.308Z,16.15
2017-04-09T09:39:29.749Z,16.23
2017-04-09T09:40:31.180Z,16.26
2017-04-09T09:41:32.617Z,16.27
2017-04-09T09:42:34.051Z,16.33
2017-04-09T09:43:35.491Z,16.26
2017-04-09T09:44:36.924Z,16.09
2017-04-09T09:45:38.437Z,16.22
2017-04-09T09:46:39.876Z,16.50
2017-04-09T09:47:41.312Z,16.53
2017-04-09T09:48:42.768Z,16.65
2017-04-09T09:49:44.206Z,16.80
2017-04-09T09:50:45.654Z,16.80
2017-04-09T09:51:47.091Z,16.85
2017-04-09T09:52:48.524Z,16.99
2017-04-09T09:53:49.966Z,16.90
2017-04-09T09:54:51.922Z,16.78
2017-04-09T09:55:53.355Z,16.95
2017-04-09T09:56:54.786Z,16.95
2017-04-09T09:57:56.238Z,17.03
2017-04-09T09:58:57.674Z,16.99
2017-04-09T10:00:00.670Z,17.32
2017-04-09T10:01:02.121Z,17.43
2017-04-09T10:02:03.555Z,17.41
2017-04-09T10:03:04.991Z,17.67
2017-04-09T10:04:06.429Z,17.64
2017-04-09T10:05:07.865Z,17.74
2017-04-09T10:06:09.302Z,17.57
2017-04-09T10:07:10.738Z,17.64
2017-04-09T10:08:12.175Z,17.41
2017-04-09T10:09:13.612Z,17.74
2017-04-09T10:10:15.049Z,17.55
2017-04-09T10:11:16.476Z,17.76
2017-04-09T10:12:17.904Z,17.66
2017-04-09T10:13:19.339Z,17.64
2017-04-09T10:14:20.775Z,17.73
2017-04-09T10:15:22.212Z,17.87
2017-04-09T10:16:23.651Z,18.03
2017-04-09T10:17:25.085Z,18.09
2017-04-09T10:18:26.524Z,18.31
2017-04-09T10:19:27.966Z,18.40
2017-04-09T10:20:29.407Z,18.42
2017-04-09T10:21:30.850Z,18.67
2017-04-09T10:22:32.283Z,18.62
2017-04-09T10:23:33.721Z,18.83
2017-04-09T10:24:35.165Z,18.58
2017-04-09T10:25:36.601Z,18.61
2017-04-09T10:26:38.087Z,18.84
2017-04-09T10:27:39.523Z,18.95
2017-04-09T10:28:40.961Z,19.06
2017-04-09T10:29:42.401Z,18.91
2017-04-09T10:30:43.847Z,18.82
2017-04-09T10:31:45.294Z,18.95
2017-04-09T10:32:46.781Z,18.92
2017-04-09T10:33:48.221Z,19.11
2017-04-09T10:34:49.659Z,19.31
2017-04-09T10:35:51.095Z,19.10
2017-04-09T10:36:52.546Z,19.13
2017-04-09T10:37:54.022Z,18.94
2017-04-09T10:38:55.456Z,18.94
2017-04-09T10:39:56.890Z,19.08
2017-04-09T10:40:58.355Z,19.32
2017-04-09T10:41:59.798Z,19.42
2017-04-09T10:43:01.239Z,19.39
2017-04-09T10:44:02.685Z,19.46
2017-04-09T10:45:04.125Z,19.01
2017-04-09T10:46:05.570Z,19.02
2017-04-09T10:47:07.006Z,19.17
2017-04-09T10:48:08.459Z,19.31
2017-04-09T10:49:09.901Z,19.46
2017-04-09T10:50:11.348Z,19.57
2017-04-09T10:51:12.786Z,19.70
2017-04-09T10:52:14.227Z,19.68
2017-04-09T10:53:15.661Z,19.63
2017-04-09T10:54:17.097Z,19.97
2017-04-09T10:55:18.551Z,19.84
2017-04-09T10:56:19.988Z,19.75
2017-04-09T10:57:21.426Z,19.72
2017-04-09T10:58:22.866Z,19.73
2017-04-09T10:59:24.303Z,19.95
2017-04-09T11:00:25.744Z,19.88
2017-04-09T11:01:27.182Z,20.00
2017-04-09T11:02:28.623Z,20.06
2017-04-09T11:03:30.110Z,19.97
2017-04-09T11:04:31.551Z,19.93
2017-04-09T11:05:32.989Z,19.95
2017-04-09T11:06:34.451Z,19.91
2017-04-09T11:07:35.882Z,19.97
2017-04-09T11:08:37.321Z,20.18
2017-04-09T11:09:38.808Z,20.24
2017-04-09T11:10:40.244Z,20.28
2017-04-09T11:11:41.689Z,20.24
2017-04-09T11:12:43.126Z,20.16
2017-04-09T11:13:44.568Z,20.38
2017-04-09T11:14:46.007Z,20.08
2017-04-09T11:15:47.451Z,20.10
2017-04-09T11:16:48.893Z,20.18
2017-04-09T11:17:50.334Z,20.21
2017-04-09T11:18:51.771Z,20.23
2017-04-09T11:19:53.211Z,20.31
2017-04-09T11:20:54.655Z,20.28
2017-04-09T11:21:56.091Z,20.39
2017-04-09T11:22:57.530Z,20.66
2017-04-09T11:23:58.991Z,20.69
2017-04-09T11:25:00.431Z,20.76
2017-04-09T11:26:01.870Z,20.69
2017-04-09T11:27:03.312Z,20.71
2017-04-09T11:28:04.744Z,20.62
2017-04-09T11:29:06.193Z,21.02
2017-04-09T11:30:07.634Z,21.27
2017-04-09T11:31:09.074Z,21.44
2017-04-09T11:32:10.522Z,21.27
2017-04-09T11:33:11.967Z,21.13
2017-04-09T11:34:13.403Z,21.11
2017-04-09T11:35:14.842Z,21.34
2017-04-09T11:36:16.277Z,21.20
2017-04-09T11:37:17.719Z,21.29
2017-04-09T11:38:19.156Z,21.44
2017-04-09T11:39:20.646Z,21.34
2017-04-09T11:40:22.099Z,21.05
2017-04-09T11:41:23.542Z,21.16
2017-04-09T11:42:24.987Z,21.20
2017-04-09T11:43:26.429Z,21.13
2017-04-09T11:44:27.873Z,21.21
2017-04-09T11:45:29.303Z,21.27
2017-04-09T11:46:30.743Z,21.34
2017-04-09T11:47:32.187Z,21.17
2017-04-09T11:48:33.622Z,21.61
2017-04-09T11:49:35.064Z,21.72
2017-04-09T11:50:36.501Z,21.90
2017-04-09T11:51:37.968Z,21.92
2017-04-09T11:52:39.406Z,21.69
2017-04-09T11:53:40.857Z,21.98
2017-04-09T11:54:42.309Z,22.06
2017-04-09T11:55:43.758Z,21.87
2017-04-09T11:56:45.296Z,22.01
2017-04-09T11:57:46.736Z,21.75
2017-04-09T11:58:48.189Z,21.60
2017-04-09T11:59:49.631Z,21.32
2017-04-09T12:00:51.099Z,21.48
2017-04-09T12:01:52.550Z,21.27
2017-04-09T12:02:53.989Z,21.16
2017-04-09T12:03:55.437Z,21.34
2017-04-09T12:04:56.883Z,21.51
2017-04-09T12:05:58.327Z,21.75
2017-04-09T12:06:59.764Z,21.90
2017-04-09T12:08:01.197Z,21.76
2017-04-09T12:09:02.645Z,21.99
2017-04-09T12:10:04.086Z,22.19
2017-04-09T12:11:05.528Z,22.07
2017-04-09T12:12:06.968Z,21.78
2017-04-09T12:13:08.426Z,21.97
2017-04-09T12:14:09.862Z,22.10
2017-04-09T12:15:11.302Z,22.39
2017-04-09T12:16:12.746Z,22.34
2017-04-09T12:17:14.183Z,22.50
2017-04-09T12:18:15.624Z,22.59
2017-04-09T12:19:17.064Z,22.41
2017-04-09T12:20:18.498Z,22.14
2017-04-09T12:21:19.939Z,22.37
2017-04-09T12:22:21.374Z,22.38
2017-04-09T12:23:22.811Z,22.28
2017-04-09T12:24:24.307Z,22.49
2017-04-09T12:25:25.719Z,22.65
2017-04-09T12:26:27.171Z,22.44
2017-04-09T12:27:28.609Z,22.27
2017-04-09T12:28:30.051Z,22.64
2017-04-09T12:29:31.488Z,22.87
2017-04-09T12:30:32.936Z,22.59
2017-04-09T12:31:34.387Z,22.37
2017-04-09T12:32:35.828Z,22.35
2017-04-09T12:33:37.270Z,22.41
2017-04-09T12:34:38.711Z,22.39
2017-04-09T12:35:40.145Z,22.52
2017-04-09T12:36:41.587Z,22.47
2017-04-09T12:37:43.025Z,22.78
2017-04-09T12:38:44.467Z,22.65
2017-04-09T12:39:45.911Z,22.49
2017-04-09T12:40:47.347Z,22.41
2017-04-09T12:41:48.786Z,22.34
2017-04-09T12:42:50.264Z,22.56
2017-04-09T12:43:51.700Z,22.64
2017-04-09T12:44:53.110Z,22.80
2017-04-09T12:45:54.548Z,22.74
2017-04-09T12:46:55.990Z,22.57
2017-04-09T12:47:57.430Z,22.74
2017-04-09T12:48:58.875Z,22.86
2017-04-09T12:50:00.316Z,22.90
2017-04-09T12:51:01.754Z,22.90
2017-04-09T12:52:03.206Z,23.09
2017-04-09T12:53:04.648Z,23.31
2017-04-09T12:54:06.087Z,23.49
2017-04-09T12:55:07.532Z,23.55
2017-04-09T12:56:08.969Z,23.34
2017-04-09T12:57:10.406Z,23.50
2017-04-09T12:58:11.851Z,23.67
2017-04-09T12:59:13.284Z,23.43
2017-04-09T13:00:14.757Z,23.60
2017-04-09T13:01:16.223Z,23.32
2017-04-09T13:02:17.660Z,23.61
2017-04-09T13:03:19.103Z,23.76
2017-04-09T13:04:20.546Z,23.86
2017-04-09T13:05:21.987Z,23.79
2017-04-09T13:06:23.427Z,23.98
2017-04-09T13:07:24.874Z,23.86
2017-04-09T13:08:26.317Z,23.98
2017-04-09T13:09:27.754Z,24.17
2017-04-09T13:10:29.200Z,24.13
2017-04-09T13:11:30.672Z,23.97
2017-04-09T13:12:32.110Z,24.12
2017-04-09T13:13:33.550Z,23.97
2017-04-09T13:14:34.982Z,24.07
2017-04-09T13:15:36.444Z,23.95
2017-04-09T13:16:37.881Z,23.70
2017-04-09T13:17:39.332Z,23.71
2017-04-09T13:18:40.760Z,23.77
2017-04-09T13:19:42.206Z,23.82
2017-04-09T13:20:43.655Z,23.87
2017-04-09T13:21:45.085Z,23.87
2017-04-09T13:22:46.525Z,24.10
2017-04-09T13:23:47.969Z,23.98
2017-04-09T13:24:49.417Z,24.34
2017-04-09T13:25:50.869Z,24.94
2017-04-09T13:26:52.338Z,26.73
2017-04-09T13:27:53.798Z,30.11
2017-04-09T13:28:55.246Z,34.22
2017-04-09T13:29:56.687Z,36.23
2017-04-09T13:30:58.123Z,37.19
2017-04-09T13:31:59.569Z,36.98
2017-04-09T13:33:01.022Z,37.51
2017-04-09T13:34:02.457Z,37.99
2017-04-09T13:35:03.901Z,38.98
2017-04-09T13:36:05.340Z,39.54
2017-04-09T13:37:06.786Z,39.74
2017-04-09T13:38:08.251Z,40.24
2017-04-09T13:39:09.696Z,40.86
2017-04-09T13:40:11.139Z,39.47
2017-04-09T13:41:12.582Z,36.52
2017-04-09T13:42:14.025Z,34.41
2017-04-09T13:43:15.469Z,31.54
2017-04-09T13:44:16.919Z,31.39
2017-04-09T13:45:18.385Z,30.47
2017-04-09T13:46:19.835Z,29.29
2017-04-09T13:47:21.282Z,27.62
2017-04-09T13:48:22.736Z,26.62
2017-04-09T13:49:24.187Z,26.87
2017-04-09T13:50:25.628Z,26.77
2017-04-09T13:51:27.079Z,26.76
2017-04-09T13:52:28.530Z,26.67
2017-04-09T13:53:29.979Z,26.40
2017-04-09T13:54:31.422Z,25.27
2017-04-09T13:55:32.872Z,24.92
2017-04-09T13:56:34.319Z,24.71
2017-04-09T13:57:35.802Z,24.44
2017-04-09T13:58:37.220Z,24.27
2017-04-09T13:59:38.671Z,24.10
2017-04-09T14:00:40.137Z,24.12
2017-04-09T14:01:41.576Z,24.13
2017-04-09T14:02:43.019Z,24.39
2017-04-09T14:03:44.473Z,24.16
2017-04-09T14:04:45.930Z,24.19
2017-04-09T14:05:47.367Z,24.31
2017-04-09T14:06:48.818Z,24.31
2017-04-09T14:07:50.259Z,23.86
2017-04-09T14:08:51.701Z,23.86
2017-04-09T14:09:53.142Z,23.87
2017-04-09T14:10:54.588Z,23.70
2017-04-09T14:11:56.037Z,23.32
2017-04-09T14:12:57.486Z,23.08
2017-04-09T14:13:58.928Z,23.08
2017-04-09T14:15:00.407Z,23.07
2017-04-09T14:16:01.852Z,23.24
2017-04-09T14:17:03.294Z,23.11
2017-04-09T14:18:04.741Z,23.29
2017-04-09T14:19:06.183Z,23.32
2017-04-09T14:20:07.622Z,23.38
2017-04-09T14:21:09.067Z,23.46
2017-04-09T14:22:10.511Z,23.20
2017-04-09T14:23:11.941Z,23.34
2017-04-09T14:24:13.400Z,23.32
2017-04-09T14:25:14.843Z,23.22
2017-04-09T14:26:16.277Z,23.32
2017-04-09T14:27:17.732Z,22.83
2017-04-09T14:28:19.185Z,22.87
2017-04-09T14:29:20.627Z,22.83
2017-04-09T14:30:22.065Z,22.77
2017-04-09T14:31:23.510Z,22.57
2017-04-09T14:32:24.953Z,22.68
2017-04-09T14:33:26.393Z,22.49
2017-04-09T14:34:27.834Z,22.77
2017-04-09T14:35:29.275Z,22.68
2017-04-09T14:36:30.713Z,22.71
2017-04-09T14:37:32.153Z,22.86
2017-04-09T14:38:33.589Z,23.09
2017-04-09T14:39:35.035Z,22.89
2017-04-09T14:40:36.477Z,23.04
2017-04-09T14:41:37.919Z,23.05
2017-04-09T14:42:39.358Z,23.12
2017-04-09T14:43:40.794Z,23.20
2017-04-09T14:44:42.243Z,22.97
2017-04-09T14:45:43.705Z,23.07
2017-04-09T14:46:45.127Z,23.11
2017-04-09T14:47:46.562Z,23.07
2017-04-09T14:48:48.009Z,22.87
2017-04-09T14:49:49.447Z,22.65
2017-04-09T14:50:50.893Z,22.46
2017-04-09T14:51:52.332Z,22.68
2017-04-09T14:52:53.775Z,22.86
2017-04-09T14:53:55.225Z,23.07
2017-04-09T14:54:56.664Z,22.92
2017-04-09T14:55:58.100Z,22.90
2017-04-09T14:56:59.545Z,22.89
2017-04-09T14:58:00.993Z,22.90
2017-04-09T14:59:02.434Z,22.80
2017-04-09T15:00:03.875Z,22.87
2017-04-09T15:01:05.319Z,22.57
2017-04-09T15:02:06.755Z,22.54
2017-04-09T15:03:08.197Z,22.50
2017-04-09T15:04:09.639Z,22.53
2017-04-09T15:05:11.075Z,22.52
2017-04-09T15:06:12.517Z,22.39
2017-04-09T15:07:13.956Z,22.25
2017-04-09T15:08:15.403Z,22.27
2017-04-09T15:09:16.843Z,22.25
2017-04-09T15:10:18.286Z,22.37
2017-04-09T15:11:19.728Z,22.32
2017-04-09T15:12:21.179Z,22.44
2017-04-09T15:13:22.620Z,22.44
2017-04-09T15:14:24.060Z,22.50
2017-04-09T15:15:25.503Z,22.54
2017-04-09T15:16:26.934Z,22.49
2017-04-09T15:17:28.377Z,22.31
2017-04-09T15:18:29.813Z,22.29
2017-04-09T15:19:31.250Z,22.44
2017-04-09T15:20:32.699Z,22.32
2017-04-09T15:21:34.135Z,22.28
2017-04-09T15:22:35.575Z,22.27
2017-04-09T15:23:37.012Z,22.17
2017-04-09T15:24:38.458Z,22.28
2017-04-09T15:25:39.897Z,22.29
2017-04-09T15:26:41.359Z,22.32
2017-04-09T15:27:42.797Z,22.25
2017-04-09T15:28:44.250Z,22.22
2017-04-09T15:29:45.689Z,22.23
2017-04-09T15:30:47.141Z,22.13
2017-04-09T15:31:48.587Z,22.25
2017-04-09T15:32:50.026Z,22.43
2017-04-09T15:33:52.111Z,22.28
2017-04-09T15:34:53.553Z,22.32
2017-04-09T15:35:54.994Z,22.31
2017-04-09T15:36:56.423Z,22.27
2017-04-09T15:37:57.867Z,22.09
2017-04-09T15:38:59.309Z,22.14
2017-04-09T15:40:00.749Z,22.13
2017-04-09T15:41:02.196Z,22.10
2017-04-09T15:42:03.634Z,21.98
2017-04-09T15:43:05.071Z,22.09
2017-04-09T15:44:06.510Z,22.12
2017-04-09T15:45:07.952Z,21.98
2017-04-09T15:46:09.388Z,21.92
2017-04-09T15:47:10.834Z,21.75
2017-04-09T15:48:12.269Z,21.78
2017-04-09T15:49:13.701Z,21.85
2017-04-09T15:50:15.163Z,21.74
2017-04-09T15:51:16.598Z,21.75
2017-04-09T15:52:18.041Z,21.72
2017-04-09T15:53:19.484Z,21.67
2017-04-09T15:54:20.927Z,21.57
2017-04-09T15:55:22.930Z,21.64
2017-04-09T15:56:24.368Z,21.59
2017-04-09T15:57:25.803Z,21.54
2017-04-09T15:58:27.242Z,21.44
2017-04-09T15:59:28.684Z,21.44
2017-04-09T16:00:30.124Z,21.51
2017-04-09T16:01:31.565Z,21.57
2017-04-09T16:02:33.018Z,21.60
2017-04-09T16:03:34.432Z,21.75
2017-04-09T16:04:35.871Z,21.56
2017-04-09T16:05:37.340Z,21.63
2017-04-09T16:06:38.787Z,21.38
2017-04-09T16:07:40.217Z,21.29
2017-04-09T16:08:41.658Z,21.36
2017-04-09T16:09:43.100Z,21.29
2017-04-09T16:10:44.541Z,21.42
2017-04-09T16:11:45.975Z,21.38
2017-04-09T16:12:47.421Z,21.19
2017-04-09T16:13:48.859Z,21.26
2017-04-09T16:14:50.295Z,21.29
2017-04-09T16:15:51.744Z,21.44
2017-04-09T16:16:53.193Z,21.29
2017-04-09T16:17:54.630Z,21.30
2017-04-09T16:18:56.064Z,21.27
2017-04-09T16:19:57.505Z,21.30
2017-04-09T16:20:58.950Z,21.13
2017-04-09T16:22:00.379Z,21.23
2017-04-09T16:23:01.827Z,21.32
2017-04-09T16:24:03.259Z,21.39
2017-04-09T16:25:04.695Z,21.42
2017-04-09T16:26:06.140Z,21.35
2017-04-09T16:27:07.587Z,21.44
2017-04-09T16:28:09.026Z,21.38
2017-04-09T16:29:10.501Z,21.34
2017-04-09T16:30:11.942Z,21.14
2017-04-09T16:31:13.383Z,21.05
2017-04-09T16:32:14.823Z,21.09
2017-04-09T16:33:16.249Z,21.01
2017-04-09T16:34:17.689Z,21.13
2017-04-09T16:35:19.138Z,21.17
2017-04-09T16:36:20.580Z,21.06
2017-04-09T16:37:22.020Z,21.05
2017-04-09T16:38:23.461Z,20.95
2017-04-09T16:39:24.897Z,21.01
2017-04-09T16:40:26.335Z,21.01
2017-04-09T16:41:27.774Z,20.95
2017-04-09T16:42:29.245Z,21.04
2017-04-09T16:43:30.687Z,21.38
2017-04-09T16:44:32.131Z,22.13
2017-04-09T16:45:33.573Z,22.19
2017-04-09T16:46:35.799Z,21.87
2017-04-09T16:47:37.233Z,21.41
2017-04-09T16:48:38.675Z,21.29
2017-04-09T16:49:40.112Z,21.17
2017-04-09T16:50:41.547Z,21.06
2017-04-09T16:51:42.988Z,20.95
2017-04-09T16:52:44.430Z,20.99
2017-04-09T16:53:45.891Z,20.99
2017-04-09T16:54:47.339Z,20.91
2017-04-09T16:55:48.781Z,20.86
2017-04-09T16:56:50.221Z,20.86
2017-04-09T16:57:51.662Z,20.74
2017-04-09T16:58:53.103Z,20.68
2017-04-09T16:59:54.536Z,20.68
2017-04-09T17:00:55.979Z,20.59
2017-04-09T17:01:57.417Z,20.65
2017-04-09T17:02:58.859Z,20.54
2017-04-09T17:04:00.287Z,20.47
2017-04-09T17:05:01.732Z,20.71
2017-04-09T17:06:03.181Z,20.59
2017-04-09T17:07:04.613Z,20.62
2017-04-09T17:08:06.065Z,20.59
2017-04-09T17:09:07.495Z,20.49
2017-04-09T17:10:08.933Z,20.69
2017-04-09T17:11:10.373Z,20.66
2017-04-09T17:12:11.826Z,20.69
2017-04-09T17:13:13.269Z,20.68
2017-04-09T17:14:14.709Z,20.68
2017-04-09T17:15:16.154Z,20.56
2017-04-09T17:16:17.588Z,20.65
2017-04-09T17:17:19.040Z,20.53
2017-04-09T17:18:20.486Z,20.25
2017-04-09T17:19:21.938Z,20.21
2017-04-09T17:20:23.384Z,20.27
2017-04-09T17:21:24.820Z,20.21
2017-04-09T17:22:26.261Z,20.05
2017-04-09T17:23:27.696Z,20.18
2017-04-09T17:24:29.127Z,20.06
2017-04-09T17:25:30.568Z,20.09
2017-04-09T17:26:31.997Z,20.03
2017-04-09T17:27:33.438Z,20.09
2017-04-09T17:28:34.874Z,20.25
2017-04-09T17:29:36.310Z,20.15
2017-04-09T17:30:37.760Z,20.12
2017-04-09T17:31:39.211Z,20.00
2017-04-09T17:32:41.620Z,20.06
2017-04-09T17:33:43.059Z,20.03
2017-04-09T17:34:45.346Z,19.97
2017-04-09T17:35:47.530Z,19.97
2017-04-09T17:36:49.626Z,19.86
2017-04-09T17:37:51.065Z,19.87
2017-04-09T17:38:53.052Z,19.69
2017-04-09T17:39:54.489Z,19.75
2017-04-09T17:40:55.929Z,19.73
2017-04-09T17:41:57.372Z,19.70
2017-04-09T17:42:59.484Z,19.57
2017-04-09T17:44:00.931Z,19.51
2017-04-09T17:45:03.147Z,19.43
2017-04-09T17:46:04.594Z,19.57
2017-04-09T17:47:07.017Z,19.51
2017-04-09T17:48:08.688Z,19.46
2017-04-09T17:49:10.123Z,19.42
2017-04-09T17:50:12.093Z,19.47
2017-04-09T17:51:13.531Z,19.38
2017-04-09T17:52:14.972Z,19.31
2017-04-09T17:53:17.010Z,19.25
2017-04-09T17:54:18.444Z,19.10
2017-04-09T17:55:19.881Z,19.06
2017-04-09T17:56:21.986Z,18.98
2017-04-09T17:57:23.358Z,18.92
2017-04-09T17:58:24.805Z,18.95
2017-04-09T17:59:26.958Z,18.90
2017-04-09T18:00:28.215Z,18.84
2017-04-09T18:01:29.657Z,18.64
2017-04-09T18:02:31.096Z,18.47
2017-04-09T18:03:33.464Z,18.39
2017-04-09T18:04:33.961Z,18.24
2017-04-09T18:05:35.397Z,18.29
2017-04-09T18:06:36.841Z,18.19
2017-04-09T18:07:39.082Z,18.13
2017-04-09T18:08:40.533Z,18.06
2017-04-09T18:09:42.962Z,17.99
2017-04-09T18:10:44.316Z,18.06
2017-04-09T18:11:45.758Z,18.13
2017-04-09T18:12:47.866Z,17.74
2017-04-09T18:13:49.304Z,17.38
2017-04-09T18:14:50.745Z,17.47
2017-04-09T18:15:52.949Z,17.62
2017-04-09T18:16:54.380Z,17.69
2017-04-09T18:17:56.534Z,17.57
2017-04-09T18:18:57.972Z,17.53
2017-04-09T18:19:59.419Z,17.62
2017-04-09T18:21:01.541Z,17.54
2017-04-09T18:22:02.989Z,17.50
2017-04-09T18:23:04.424Z,17.44
2017-04-09T18:24:06.731Z,17.06
2017-04-09T18:25:08.165Z,17.22
2017-04-09T18:26:10.538Z,17.18
2017-04-09T18:27:11.970Z,16.95
2017-04-09T18:28:13.413Z,16.99
2017-04-09T18:29:15.395Z,16.80
2017-04-09T18:30:16.827Z,16.65
2017-04-09T18:31:18.905Z,16.33
2017-04-09T18:32:20.343Z,15.94
2017-04-09T18:33:21.778Z,15.99
2017-04-09T18:34:23.218Z,16.00
2017-04-09T18:35:25.316Z,16.00
2017-04-09T18:36:26.759Z,15.94
2017-04-09T18:37:29.019Z,15.86
2017-04-09T18:38:30.492Z,15.78
2017-04-09T18:39:31.923Z,15.79
2017-04-09T18:40:34.289Z,15.79
2017-04-09T18:41:35.722Z,15.78
2017-04-09T18:42:38.097Z,15.66
2017-04-09T18:43:39.543Z,15.51
2017-04-09T18:44:41.601Z,15.56
2017-04-09T18:45:43.031Z,15.36
2017-04-09T18:46:44.466Z,15.51
2017-04-09T18:47:46.909Z,15.52
2017-04-09T18:48:48.346Z,15.49
2017-04-09T18:49:50.517Z,15.19
2017-04-09T18:50:51.962Z,15.09
2017-04-09T18:51:54.330Z,14.98
2017-04-09T18:52:55.773Z,14.91
2017-04-09T18:53:57.940Z,14.81
2017-04-09T18:54:59.362Z,14.84
2017-04-09T18:56:01.329Z,14.99
2017-04-09T18:57:03.283Z,15.05
2017-04-09T18:58:05.446Z,15.17
2017-04-09T18:59:06.890Z,15.01
2017-04-09T19:00:09.242Z,14.90
2017-04-09T19:01:10.681Z,15.02
2017-04-09T19:02:12.736Z,14.83
2017-04-09T19:03:14.171Z,14.84
2017-04-09T19:04:15.604Z,14.98
2017-04-09T19:05:17.742Z,14.99
2017-04-09T19:06:19.719Z,14.87
2017-04-09T19:07:22.269Z,14.67
2017-04-09T19:08:25.588Z,14.71
2017-04-09T19:09:26.410Z,14.43
2017-04-09T19:10:27.844Z,14.56
2017-04-09T19:11:32.090Z,14.83
